createdAt,value
2022-10-09T00:00:49.884Z,2.40
2022-10-09T00:03:17.359Z,2.83
2022-10-09T00:05:45.536Z,2.47
2022-10-09T00:08:12.692Z,2.47
2022-10-09T00:10:43.263Z,2.47
2022-10-09T00:13:10.401Z,2.40
2022-10-09T00:15:41.933Z,2.53
2022-10-09T00:18:10.639Z,2.58
2022-10-09T00:20:45.592Z,2.40
2022-10-09T00:23:14.682Z,2.15
2022-10-09T00:25:57.049Z,2.78
2022-10-09T00:28:25.172Z,2.50
2022-10-09T00:30:53.754Z,2.50
2022-10-09T00:33:20.763Z,2.78
2022-10-09T00:35:47.591Z,2.88
2022-10-09T00:38:14.376Z,2.58
2022-10-09T00:40:41.319Z,2.20
2022-10-09T00:43:17.922Z,2.10
2022-10-09T00:45:50.119Z,2.63
2022-10-09T00:48:18.570Z,2.40
2022-10-09T00:50:57.899Z,2.45
2022-10-09T00:53:28.472Z,2.83
2022-10-09T00:55:55.487Z,3.20
2022-10-09T00:58:24.327Z,2.70
2022-10-09T01:00:50.936Z,2.70
2022-10-09T01:03:17.535Z,2.80
2022-10-09T01:06:11.838Z,2.90
2022-10-09T01:08:47.928Z,3.22
2022-10-09T01:11:31.356Z,2.90
2022-10-09T01:14:22.615Z,3.22
2022-10-09T01:17:13.953Z,3.03
2022-10-09T01:19:59.519Z,3.27
2022-10-09T01:22:55.993Z,3.03
2022-10-09T01:25:33.885Z,3.30
2022-10-09T01:28:03.558Z,2.83
2022-10-09T01:30:32.014Z,3.30
2022-10-09T01:32:59.387Z,3.05
2022-10-09T01:35:26.619Z,2.75
2022-10-09T01:37:54.226Z,3.20
2022-10-09T01:40:21.922Z,3.27
2022-10-09T01:42:48.615Z,2.87
2022-10-09T01:45:16.039Z,3.20
2022-10-09T01:47:43.324Z,3.07
2022-10-09T01:50:27.419Z,3.17
2022-10-09T01:53:00.255Z,3.03
2022-10-09T01:55:38.655Z,3.20
2022-10-09T01:58:28.485Z,2.92
2022-10-09T02:01:03.651Z,2.65
2022-10-09T02:03:32.143Z,2.50
2022-10-09T02:06:01.362Z,2.58
2022-10-09T02:08:31.318Z,2.58
2022-10-09T02:11:00.347Z,2.50
2022-10-09T02:13:27.820Z,2.47
2022-10-09T02:16:09.523Z,2.38
2022-10-09T02:18:49.905Z,2.80
2022-10-09T02:21:22.894Z,2.53
2022-10-09T02:23:51.092Z,2.75
2022-10-09T02:26:18.682Z,2.80
2022-10-09T02:28:46.214Z,2.90
2022-10-09T02:31:23.239Z,2.75
2022-10-09T02:33:57.786Z,2.80
2022-10-09T02:36:25.090Z,2.65
2022-10-09T02:38:51.807Z,2.67
2022-10-09T02:41:18.388Z,3.17
2022-10-09T02:43:44.970Z,2.92
2022-10-09T02:46:11.647Z,3.00
2022-10-09T02:48:38.227Z,3.03
2022-10-09T02:51:04.821Z,2.70
2022-10-09T02:53:31.398Z,3.00
2022-10-09T02:55:57.981Z,2.95
2022-10-09T02:58:24.568Z,3.17
2022-10-09T03:00:52.648Z,3.08
2022-10-09T03:03:20.543Z,3.03
2022-10-09T03:05:47.767Z,3.40
2022-10-09T03:08:14.751Z,3.60
2022-10-09T03:10:41.517Z,3.50
2022-10-09T03:13:08.143Z,3.80
2022-10-09T03:15:37.703Z,3.83
2022-10-09T03:18:04.483Z,3.80
2022-10-09T03:20:30.990Z,3.87
2022-10-09T03:22:57.824Z,3.90
2022-10-09T03:25:25.099Z,4.13
2022-10-09T03:27:51.730Z,4.10
2022-10-09T03:30:18.242Z,4.40
2022-10-09T03:32:44.798Z,3.85
2022-10-09T03:35:11.375Z,4.27
2022-10-09T03:37:37.913Z,4.20
2022-10-09T03:40:05.377Z,4.23
2022-10-09T03:42:31.883Z,4.23
2022-10-09T03:45:00.855Z,4.73
2022-10-09T03:47:27.406Z,4.40
2022-10-09T03:49:53.930Z,4.40
2022-10-09T03:52:20.451Z,3.90
2022-10-09T03:54:47.043Z,4.53
2022-10-09T03:57:15.140Z,3.97
2022-10-09T03:59:41.658Z,4.17
2022-10-09T04:02:08.387Z,3.73
2022-10-09T04:04:34.934Z,3.97
2022-10-09T04:07:01.435Z,3.83
2022-10-09T04:09:28.009Z,3.97
2022-10-09T04:11:54.498Z,4.03
2022-10-09T04:14:21.003Z,3.90
2022-10-09T04:16:47.601Z,4.30
2022-10-09T04:19:14.328Z,4.10
2022-10-09T04:21:40.816Z,3.97
2022-10-09T04:24:08.684Z,4.70
2022-10-09T04:26:35.886Z,4.00
2022-10-09T04:29:02.430Z,4.20
2022-10-09T04:31:29.061Z,4.38
2022-10-09T04:33:55.794Z,4.28
2022-10-09T04:36:22.614Z,3.97
2022-10-09T04:38:49.235Z,3.90
2022-10-09T04:41:15.910Z,3.78
2022-10-09T04:43:42.445Z,4.10
2022-10-09T04:46:12.430Z,4.38
2022-10-09T04:48:43.870Z,3.90
2022-10-09T04:51:11.613Z,4.07
2022-10-09T04:53:38.680Z,3.95
2022-10-09T04:56:08.851Z,4.20
2022-10-09T04:58:36.608Z,4.67
2022-10-09T05:01:12.784Z,3.90
2022-10-09T05:03:39.755Z,4.43
2022-10-09T05:06:09.036Z,4.47
2022-10-09T05:08:36.178Z,4.37
2022-10-09T05:11:08.510Z,4.50
2022-10-09T05:13:38.006Z,4.40
2022-10-09T05:16:07.267Z,4.57
2022-10-09T05:18:34.829Z,4.35
2022-10-09T05:21:05.348Z,4.17
2022-10-09T05:23:32.913Z,4.30
2022-10-09T05:26:05.772Z,3.95
2022-10-09T05:28:32.858Z,4.23
2022-10-09T05:30:59.754Z,4.25
2022-10-09T05:33:27.089Z,4.10
2022-10-09T05:35:55.912Z,4.00
2022-10-09T05:38:24.124Z,4.10
2022-10-09T05:40:52.059Z,4.10
2022-10-09T05:43:18.797Z,3.90
2022-10-09T05:45:46.425Z,4.27
2022-10-09T05:48:12.969Z,4.03
2022-10-09T05:50:39.575Z,4.10
2022-10-09T05:53:06.084Z,3.67
2022-10-09T05:55:32.923Z,3.83
2022-10-09T05:57:59.471Z,4.22
2022-10-09T06:00:26.063Z,3.70
2022-10-09T06:02:53.042Z,4.10
2022-10-09T06:05:19.983Z,3.42
2022-10-09T06:07:47.101Z,3.83
2022-10-09T06:10:13.923Z,4.00
2022-10-09T06:12:40.749Z,4.00
2022-10-09T06:15:07.894Z,3.90
2022-10-09T06:17:34.583Z,3.80
2022-10-09T06:20:01.096Z,4.05
2022-10-09T06:22:27.666Z,3.90
2022-10-09T06:24:54.292Z,4.05
2022-10-09T06:27:20.862Z,3.72
2022-10-09T06:29:47.385Z,4.05
2022-10-09T06:32:13.955Z,3.50
2022-10-09T06:34:40.496Z,3.83
2022-10-09T06:37:07.031Z,3.85
2022-10-09T06:39:33.565Z,3.20
2022-10-09T06:42:00.798Z,3.28
2022-10-09T06:44:27.724Z,3.17
2022-10-09T06:46:54.213Z,2.92
2022-10-09T06:49:20.754Z,3.10
2022-10-09T06:51:47.607Z,3.13
2022-10-09T06:54:16.292Z,2.90
2022-10-09T06:56:42.923Z,2.75
2022-10-09T06:59:11.015Z,2.97
2022-10-09T07:01:37.749Z,2.70
2022-10-09T07:04:07.299Z,2.80
2022-10-09T07:06:37.431Z,2.53
2022-10-09T07:09:07.071Z,2.95
2022-10-09T07:11:39.409Z,2.58
2022-10-09T07:14:08.376Z,2.40
2022-10-09T07:16:40.617Z,2.75
2022-10-09T07:19:11.086Z,2.42
2022-10-09T07:21:39.602Z,2.40
2022-10-09T07:24:06.895Z,2.88
2022-10-09T07:26:35.892Z,3.20
2022-10-09T07:29:04.007Z,2.35
2022-10-09T07:31:30.856Z,2.47
2022-10-09T07:33:57.658Z,2.33
2022-10-09T07:36:24.888Z,2.50
2022-10-09T07:38:53.819Z,2.70
2022-10-09T07:41:21.405Z,2.30
2022-10-09T07:43:47.988Z,2.65
2022-10-09T07:46:17.909Z,2.00
2022-10-09T07:48:44.964Z,2.33
2022-10-09T07:51:21.292Z,2.17
2022-10-09T07:53:48.297Z,2.80
2022-10-09T07:56:32.680Z,2.25
2022-10-09T07:59:01.773Z,2.28
2022-10-09T08:01:29.267Z,2.28
2022-10-09T08:03:57.136Z,2.40
2022-10-09T08:06:24.397Z,2.20
2022-10-09T08:08:56.023Z,2.50
2022-10-09T08:11:24.367Z,2.30
2022-10-09T08:13:52.180Z,2.45
2022-10-09T08:16:20.644Z,2.33
2022-10-09T08:18:47.787Z,2.25
2022-10-09T08:21:16.956Z,2.47
2022-10-09T08:23:44.203Z,2.33
2022-10-09T08:26:17.514Z,2.30
2022-10-09T08:28:44.319Z,2.30
2022-10-09T08:31:15.848Z,2.65
2022-10-09T08:33:43.021Z,2.20
2022-10-09T08:36:11.948Z,2.08
2022-10-09T08:38:47.285Z,2.30
2022-10-09T08:41:26.726Z,2.00
2022-10-09T08:44:22.173Z,2.17
2022-10-09T08:46:55.464Z,2.70
2022-10-09T08:49:31.792Z,2.43
2022-10-09T08:52:03.608Z,2.60
2022-10-09T08:54:34.501Z,2.47
2022-10-09T08:57:04.252Z,2.85
2022-10-09T08:59:31.698Z,2.45
2022-10-09T09:02:35.995Z,2.50
2022-10-09T09:05:25.837Z,2.35
2022-10-09T09:08:06.298Z,2.42
2022-10-09T09:10:42.563Z,2.00
2022-10-09T09:13:46.106Z,2.40
2022-10-09T09:16:40.636Z,2.20
2022-10-09T09:19:23.211Z,2.38
2022-10-09T09:21:51.613Z,2.17
2022-10-09T09:24:38.635Z,2.40
2022-10-09T09:27:16.285Z,2.60
2022-10-09T09:29:48.795Z,2.30
2022-10-09T09:32:23.332Z,2.17
2022-10-09T09:34:50.513Z,2.90
2022-10-09T09:37:17.307Z,2.70
2022-10-09T09:40:34.543Z,2.88
2022-10-09T09:42:30.948Z,2.50
2022-10-09T10:19:38.926Z,2.22
2022-10-09T10:22:20.498Z,2.10
2022-10-09T10:24:49.361Z,2.40
2022-10-09T10:27:35.445Z,2.30
2022-10-09T10:30:06.259Z,2.28
2022-10-09T10:32:39.564Z,2.30
2022-10-09T10:35:14.931Z,2.25
2022-10-09T10:38:14.705Z,2.20
2022-10-09T10:40:50.804Z,2.22
2022-10-09T10:43:40.814Z,2.22
2022-10-09T10:46:22.197Z,2.10
2022-10-09T10:48:50.067Z,2.35
2022-10-09T10:51:16.582Z,2.30
2022-10-09T10:54:04.106Z,2.28
2022-10-09T10:56:56.089Z,2.20
2022-10-09T10:59:45.161Z,2.20
2022-10-09T11:02:32.669Z,2.17
2022-10-09T11:05:14.579Z,2.30
2022-10-09T11:07:59.915Z,2.38
2022-10-09T11:10:48.663Z,2.35
2022-10-09T11:13:28.875Z,2.20
2022-10-09T11:16:21.662Z,2.30
2022-10-09T11:19:02.979Z,2.20
2022-10-09T11:21:52.083Z,2.03
2022-10-09T11:24:50.494Z,1.95
2022-10-09T11:27:28.741Z,2.00
2022-10-09T11:30:14.758Z,1.90
2022-10-09T11:33:03.034Z,1.95
2022-10-09T11:35:39.885Z,2.13
2022-10-09T11:38:24.275Z,1.98
2022-10-09T11:40:51.992Z,1.73
2022-10-09T11:43:24.496Z,1.67
2022-10-09T11:46:18.249Z,1.83
2022-10-09T11:49:03.039Z,2.10
2022-10-09T11:51:45.707Z,1.92
2022-10-09T11:54:18.644Z,1.75
2022-10-09T11:57:00.426Z,1.50
2022-10-09T11:59:42.057Z,1.83
2022-10-09T12:02:30.741Z,1.90
2022-10-09T12:04:57.550Z,1.52
2022-10-09T12:07:28.368Z,1.63
2022-10-09T12:10:03.737Z,1.48
2022-10-09T12:12:31.098Z,1.70
2022-10-09T12:14:58.480Z,1.63
2022-10-09T12:17:25.082Z,1.58
2022-10-09T12:20:07.537Z,1.83
2022-10-09T12:22:42.609Z,1.40
2022-10-09T12:25:23.976Z,1.48
2022-10-09T12:27:54.896Z,1.40
2022-10-09T12:30:24.768Z,1.50
2022-10-09T12:33:00.663Z,1.40
2022-10-09T12:35:38.418Z,1.40
2022-10-09T12:38:26.745Z,1.60
2022-10-09T12:40:55.806Z,1.38
2022-10-09T12:43:23.759Z,1.60
2022-10-09T12:45:52.958Z,1.70
2022-10-09T12:48:28.024Z,1.60
2022-10-09T12:50:55.117Z,1.63
2022-10-09T12:53:24.930Z,1.50
2022-10-09T12:55:56.127Z,1.42
2022-10-09T12:58:26.205Z,1.45
2022-10-09T13:00:59.938Z,1.65
2022-10-09T13:03:39.731Z,1.40
2022-10-09T13:06:15.893Z,1.60
2022-10-09T13:08:43.268Z,1.33
2022-10-09T13:11:20.435Z,1.67
2022-10-09T13:13:51.400Z,1.38
2022-10-09T13:16:18.342Z,1.58
2022-10-09T13:18:59.587Z,1.40
2022-10-09T13:21:35.127Z,1.40
2022-10-09T13:24:10.937Z,1.27
2022-10-09T13:26:39.147Z,1.48
2022-10-09T13:29:07.559Z,1.38
2022-10-09T13:31:36.661Z,1.50
2022-10-09T13:34:12.387Z,1.35
2022-10-09T13:36:39.030Z,1.40
2022-10-09T13:39:05.914Z,1.20
2022-10-09T13:41:32.935Z,1.50
2022-10-09T13:43:59.481Z,1.40
2022-10-09T13:46:26.049Z,1.23
2022-10-09T13:48:52.626Z,1.30
2022-10-09T13:51:19.164Z,1.40
2022-10-09T13:53:45.771Z,1.50
2022-10-09T13:56:12.403Z,1.40
2022-10-09T13:58:38.985Z,1.40
2022-10-09T14:01:05.869Z,1.55
2022-10-09T14:03:32.410Z,1.40
2022-10-09T14:06:00.815Z,1.48
2022-10-09T14:08:27.677Z,1.70
2022-10-09T14:10:54.597Z,1.58
2022-10-09T14:13:21.872Z,1.70
2022-10-09T14:15:48.600Z,1.48
2022-10-09T14:18:15.172Z,1.67
2022-10-09T14:20:41.754Z,1.42
2022-10-09T14:23:09.305Z,1.40
2022-10-09T14:25:35.996Z,1.40
2022-10-09T14:28:02.938Z,1.80
2022-10-09T14:30:29.647Z,1.67
2022-10-09T14:32:56.343Z,1.60
2022-10-09T14:35:23.489Z,1.60
2022-10-09T14:37:50.022Z,1.80
2022-10-09T14:40:16.837Z,1.65
2022-10-09T14:42:43.370Z,1.73
2022-10-09T14:45:10.514Z,1.55
2022-10-09T14:47:37.130Z,1.90
2022-10-09T14:50:04.081Z,1.65
2022-10-09T14:52:30.578Z,1.90
2022-10-09T14:54:57.155Z,1.85
2022-10-09T14:57:23.750Z,1.40
2022-10-09T14:59:50.287Z,1.85
2022-10-09T15:02:17.325Z,1.90
2022-10-09T15:04:43.919Z,1.60
2022-10-09T15:07:10.530Z,1.60
2022-10-09T15:09:37.178Z,1.90
2022-10-09T15:12:03.903Z,1.95
2022-10-09T15:14:30.593Z,1.90
2022-10-09T15:16:58.298Z,1.88
2022-10-09T15:19:25.075Z,1.70
2022-10-09T15:21:51.648Z,1.95
2022-10-09T15:24:18.173Z,1.80
2022-10-09T15:26:44.716Z,1.73
2022-10-09T15:29:12.154Z,2.00
2022-10-09T15:31:40.942Z,2.10
2022-10-09T15:34:10.291Z,1.70
2022-10-09T15:36:39.618Z,1.90
2022-10-09T15:39:08.909Z,1.60
2022-10-09T15:41:37.980Z,1.70
2022-10-09T15:44:14.098Z,2.00
2022-10-09T15:46:40.653Z,1.63
2022-10-09T15:49:08.021Z,1.80
2022-10-09T15:51:34.978Z,1.90
2022-10-09T15:54:02.020Z,1.77
2022-10-09T15:56:29.460Z,2.03
2022-10-09T15:58:57.541Z,1.92
2022-10-09T16:14:23.466Z,1.73
2022-10-09T16:16:51.509Z,1.80
2022-10-09T16:19:18.135Z,1.80
2022-10-09T16:21:44.980Z,2.00
2022-10-09T16:24:11.567Z,1.80
2022-10-09T16:26:38.251Z,1.98
2022-10-09T16:29:04.856Z,1.90
2022-10-09T16:31:36.454Z,1.90
2022-10-09T16:34:05.545Z,1.80
2022-10-09T16:36:32.487Z,2.05
2022-10-09T16:38:59.068Z,1.80
2022-10-09T16:41:26.345Z,2.10
2022-10-09T16:43:56.146Z,1.90
2022-10-09T16:46:26.891Z,1.85
2022-10-09T16:48:55.256Z,1.92
2022-10-09T16:51:27.426Z,1.80
2022-10-09T16:53:56.721Z,2.15
2022-10-09T16:56:26.043Z,2.30
2022-10-09T16:59:00.598Z,2.25
2022-10-09T17:01:28.130Z,2.30
2022-10-09T17:03:59.236Z,2.75
2022-10-09T17:06:26.560Z,2.33
2022-10-09T17:08:54.856Z,2.00
2022-10-09T17:11:22.431Z,1.95
2022-10-09T17:13:49.295Z,2.10
2022-10-09T17:16:19.157Z,1.88
2022-10-09T17:18:47.165Z,2.20
2022-10-09T17:21:15.283Z,2.08
2022-10-09T17:23:41.919Z,2.30
2022-10-09T17:26:15.023Z,2.45
2022-10-09T17:28:42.767Z,2.17
2022-10-09T17:31:14.207Z,2.40
2022-10-09T17:33:42.975Z,2.00
2022-10-09T17:36:11.182Z,2.10
2022-10-09T17:38:38.289Z,2.20
2022-10-09T17:41:06.855Z,2.10
2022-10-09T17:43:33.538Z,2.13
2022-10-09T17:46:00.950Z,2.20
2022-10-09T17:48:28.147Z,2.17
2022-10-09T17:50:57.078Z,2.20
2022-10-09T17:53:24.487Z,2.05
2022-10-09T17:55:52.824Z,2.08
2022-10-09T17:58:20.844Z,2.28
2022-10-09T18:00:47.902Z,2.15
2022-10-09T18:03:15.483Z,1.98
2022-10-09T18:05:49.920Z,2.20
2022-10-09T18:08:19.007Z,2.22
2022-10-09T18:10:46.221Z,2.00
2022-10-09T18:13:14.845Z,2.08
2022-10-09T18:15:43.914Z,2.20
2022-10-09T18:18:11.405Z,2.10
2022-10-09T18:20:39.526Z,2.20
2022-10-09T18:23:07.642Z,2.00
2022-10-09T18:25:35.498Z,1.95
2022-10-09T18:28:02.170Z,2.50
2022-10-09T18:30:28.758Z,2.50
2022-10-09T18:32:55.820Z,2.47
2022-10-09T18:35:22.711Z,2.20
2022-10-09T18:37:49.253Z,2.53
2022-10-09T18:40:15.857Z,2.40
2022-10-09T18:42:42.666Z,2.25
2022-10-09T18:45:12.734Z,2.30
2022-10-09T18:47:39.569Z,2.40
2022-10-09T18:50:09.342Z,2.35
2022-10-09T18:52:37.417Z,2.47
2022-10-09T18:55:06.229Z,2.30
2022-10-09T18:57:34.224Z,2.60
2022-10-09T19:00:01.887Z,2.33
2022-10-09T19:02:28.686Z,2.70
2022-10-09T19:04:55.857Z,2.35
2022-10-09T19:07:22.603Z,2.50
2022-10-09T19:09:53.587Z,2.70
2022-10-09T19:12:23.015Z,2.50
2022-10-09T19:14:49.811Z,2.50
2022-10-09T19:17:16.414Z,2.47
2022-10-09T19:19:42.982Z,2.53
2022-10-09T19:22:14.111Z,2.70
2022-10-09T19:24:42.238Z,2.50
2022-10-09T19:27:08.937Z,2.70
2022-10-09T19:29:35.754Z,2.55
2022-10-09T19:32:02.407Z,2.70
2022-10-09T19:34:29.741Z,2.60
2022-10-09T19:36:56.367Z,2.40
2022-10-09T19:39:22.999Z,2.50
2022-10-09T19:41:51.167Z,2.38
2022-10-09T19:44:18.523Z,2.55
2022-10-09T19:46:45.821Z,2.50
2022-10-09T19:49:12.667Z,2.70
2022-10-09T19:51:39.255Z,2.70
2022-10-09T19:54:08.368Z,2.88
2022-10-09T19:56:36.215Z,2.25
2022-10-09T19:59:05.976Z,2.80
2022-10-09T20:01:35.483Z,2.78
2022-10-09T20:04:07.683Z,2.40
2022-10-09T20:06:36.953Z,2.55
2022-10-09T20:09:04.892Z,2.72
2022-10-09T20:11:31.546Z,2.50
2022-10-09T20:13:58.802Z,2.50
2022-10-09T20:16:25.684Z,2.70
2022-10-09T20:18:54.594Z,2.65
2022-10-09T20:21:21.253Z,2.47
2022-10-09T20:23:47.817Z,2.38
2022-10-09T20:26:16.991Z,2.95
2022-10-09T20:28:44.599Z,2.40
2022-10-09T20:31:18.114Z,2.50
2022-10-09T20:33:46.342Z,2.45
2022-10-09T20:36:31.382Z,2.58
2022-10-09T20:39:00.555Z,2.95
2022-10-09T20:41:29.105Z,2.67
2022-10-09T20:43:57.343Z,2.67
2022-10-09T20:46:24.988Z,2.70
2022-10-09T20:48:52.515Z,2.70
2022-10-09T20:51:21.070Z,2.45
2022-10-09T20:53:56.033Z,2.63
2022-10-09T20:56:24.403Z,2.80
2022-10-09T20:58:51.425Z,2.53
2022-10-09T21:01:18.133Z,2.70
2022-10-09T21:03:44.780Z,2.80
2022-10-09T21:06:14.750Z,2.47
2022-10-09T21:08:41.435Z,2.67
2022-10-09T21:11:11.735Z,2.55
2022-10-09T21:13:40.132Z,2.80
2022-10-09T21:16:08.753Z,2.80
2022-10-09T21:18:36.210Z,2.85
2022-10-09T21:21:05.426Z,2.90
2022-10-09T21:23:32.038Z,2.85
2022-10-09T21:25:59.053Z,2.90
2022-10-09T21:28:26.479Z,2.60
2022-10-09T21:30:53.033Z,2.78
2022-10-09T21:33:19.688Z,2.50
2022-10-09T21:35:51.381Z,2.92
2022-10-09T21:38:19.928Z,3.03
2022-10-09T21:40:47.403Z,2.53
2022-10-09T21:43:14.046Z,3.05
2022-10-09T21:45:41.279Z,2.53
2022-10-09T21:48:08.686Z,2.92
2022-10-09T21:50:36.679Z,2.80
2022-10-09T21:53:03.948Z,2.70
2022-10-09T21:55:30.606Z,3.00
2022-10-09T21:57:57.410Z,3.20
2022-10-09T22:00:27.225Z,3.13
2022-10-09T22:02:53.957Z,3.45
2022-10-09T22:05:20.726Z,2.40
2022-10-09T22:07:47.667Z,3.22
2022-10-09T22:10:14.212Z,3.42
2022-10-09T22:12:40.839Z,3.08
2022-10-09T22:15:07.761Z,3.35
2022-10-09T22:17:34.310Z,3.00
2022-10-09T22:20:00.840Z,3.55
2022-10-09T22:22:27.533Z,3.00
2022-10-09T22:24:54.087Z,3.40
2022-10-09T22:27:20.647Z,2.90
2022-10-09T22:29:47.343Z,3.13
2022-10-09T22:32:13.962Z,3.05
2022-10-09T22:34:40.552Z,3.22
2022-10-09T22:37:07.143Z,2.90
2022-10-09T22:39:33.939Z,3.30
2022-10-09T22:42:00.509Z,3.50
2022-10-09T22:44:27.153Z,3.15
2022-10-09T22:46:53.906Z,3.22
2022-10-09T22:49:20.413Z,3.50
2022-10-09T22:51:47.131Z,2.85
2022-10-09T22:54:13.966Z,2.90
2022-10-09T22:56:43.053Z,3.20
2022-10-09T22:59:11.935Z,3.13
2022-10-09T23:01:43.417Z,3.00
2022-10-09T23:04:16.662Z,2.85
2022-10-09T23:06:43.983Z,3.00
2022-10-09T23:09:13.095Z,2.92
2022-10-09T23:11:40.227Z,3.28
2022-10-09T23:14:06.925Z,2.88
2022-10-09T23:16:34.441Z,3.30
2022-10-09T23:19:06.457Z,3.00
2022-10-09T23:21:34.694Z,2.97
2022-10-09T23:24:01.246Z,3.10
2022-10-09T23:26:30.599Z,2.92
2022-10-09T23:29:04.168Z,2.72
2022-10-09T23:31:31.220Z,2.70
2022-10-09T23:33:58.747Z,3.00
2022-10-09T23:36:27.827Z,2.80
2022-10-09T23:38:55.169Z,2.55
2022-10-09T23:41:24.542Z,2.95
2022-10-09T23:43:51.893Z,3.17
2022-10-09T23:46:21.498Z,2.92
2022-10-09T23:48:48.933Z,3.00
2022-10-09T23:51:16.605Z,2.85
2022-10-09T23:53:43.305Z,2.90
2022-10-09T23:56:20.453Z,3.03
2022-10-09T23:58:47.709Z,2.80
